Terminal Aerodrome Forecast
Issued by NWS

Home | Current Version | Previous Version | Text Only | Print | Product List | Glossary On
Versions: 1 2 3 4 5 6 7 8 9 10 11 12 13
000
FTUS42 KMLB 302320
TAFFPR
TAF
KFPR 302320Z 3100/3124 13009KT P6SM FEW250
     FM310100 13005KT P6SM FEW030 SCT250
     FM310600 13003KT P6SM VCSH SCT030
     FM311400 14008KT P6SM VCSH FEW035
     FM311700 12010KT P6SM VCSH BKN040=

USA.gov is the U.S. government's official web portal to all federal, state and local government web resources and services.